x

Lake Of The Woods (45148) Weather Station

2:00pm - Sun 5th Jul 2015 All times are UTC.

  • Peak Period 7s
  • Wind
    2mph, 4mph gusts
  • Sea Temp 70°f
  • Air Temp 68°f
  • Sea Pressure 1009.2mb

More Historic Weather Station data

Upgrade to MSW Pro to gain access to the past 30 days of data for over 8000 Wavebouys and Weather Stations around the globe.

Join Pro

Comparision Forecast

View Surf forecast
   
Sun 07/05 2:00pm  -  7s 2 4 mph 1009.2mb 70f 68f
1:00pm  -  7s 4 7 mph 1009.6mb 70f 67f
12:00pm  -  7s 7 9 mph 1009.4mb 69f 65f
11:00am  -  7s 7 9 mph 1009.6mb 69f 65f
10:00am  -  7s 4 7 mph 1007.9mb 69f 69f
9:00am  -  7s 7 9 mph 1008.2mb 69f 68f
8:00am  -  7s 2 4 mph 1008.3mb 69f 66f
7:00am  -  7s 11 16 mph 1008.1mb 69f 66f
6:00am  -  7s 11 13 mph 1008.7mb 69f 65f
5:00am  -  7s 13 16 mph 1008.2mb 69f 66f
4:00am  -  7s 4 7 mph 1009.4mb 70f 65f
3:00am  -  7s 18 29 mph 1011.2mb 70f 64f
2:00am  -  7s 13 18 mph 1008mb 70f 76f
1:00am  -  7s 13 16 mph 1007.9mb 70f 76f
12:00am  -  7s 13 16 mph 1007.7mb 70f 77f
Sat 07/04 11:00pm  -  7s 16 20 mph 1007.5mb 70f 78f
10:00pm  -  7s 16 18 mph 1008.4mb 70f 77f
9:00pm  -  7s 13 16 mph 1009.8mb 71f 76f
8:00pm  -  7s 16 18 mph 1010mb 70f 76f
7:00pm  -  7s 11 16 mph 1010.4mb 70f 75f
6:00pm  -  7s 9 11 mph 1011.2mb 70f 74f
5:00pm  -  7s 9 13 mph 1012mb 70f 73f
4:00pm  -  7s 9 11 mph 1012.1mb 69f 71f
2:00pm  -  7s 9 11 mph 1013mb 69f 68f
1:00pm  -  7s 11 13 mph 1013.3mb 69f 68f
12:00pm  -  7s 11 16 mph 1013.2mb 69f 67f
11:00am  -  7s 13 18 mph 1013mb 70f 67f
10:00am  -  7s 11 13 mph 1012.8mb 70f 69f
9:00am  -  7s 9 11 mph 1012.7mb 70f 69f
8:00am  -  7s 7 9 mph 1012.9mb 71f 69f
7:00am  -  7s 4 7 mph 1012.9mb 71f 69f
6:00am  -  7s 4 7 mph 1013.1mb 71f 70f
5:00am  -  7s 7 9 mph 1012.8mb 72f 71f
4:00am  -  7s 7 9 mph 1012.8mb 72f 71f
3:00am  -  7s 4
mph
1012.6mb 72f 72f
2:00am  -  7s 4
mph
1012.4mb 72f 73f
1:00am  -  7s 4 7 mph 1012.4mb 72f 74f
12:00am  -  7s 4
mph
1012.3mb 71f 77f
Fri 07/03 11:00pm  -  7s 4
mph
1012.3mb 71f 77f
10:00pm  -  7s 4 9 mph 1012.3mb 70f 77f
9:00pm  -  7s 9 13 mph 1012.7mb 70f 76f
8:00pm  -  7s 7 11 mph 1012.8mb 70f 75f
7:00pm  -  7s 11 16 mph 1013.1mb 70f 74f
6:00pm  -  7s 11 16 mph 1013mb 69f 73f
5:00pm  -  7s 13 16 mph 1012.9mb 69f 72f
4:00pm  -  7s 11 16 mph 1013.2mb 69f 71f
3:00pm  -  7s 9 11 mph 1013mb 69f 69f
2:00pm  -  7s 9 11 mph 1012.9mb 68f 68f
1:00pm  -  7s 9 11 mph 1012.3mb 68f 67f
12:00pm  -  7s 9 11 mph 1011.8mb 68f 67f
11:00am  -  7s 9 11 mph 1011.3mb 68f 67f
10:00am  -  7s 11 13 mph 1010.7mb 68f 68f
9:00am  -  7s 11 13 mph 1010.4mb 68f 68f
8:00am  -  7s 9 11 mph 1010.5mb 68f 68f
7:00am  -  7s 9 11 mph 1010.6mb 69f 68f
6:00am  -  7s 9 11 mph 1010.6mb 69f 69f
5:00am  -  7s 9 11 mph 1010.4mb 69f 69f
4:00am  -  7s 9 11 mph 1010.7mb 69f 70f
3:00am  -  7s 7 9 mph 1010.8mb 69f 70f
2:00am  -  7s 9 11 mph 1010.8mb 69f 71f
1:00am  -  7s 9 13 mph 1010.8mb 69f 71f
12:00am  -  7s 11 13 mph 1010.8mb 69f 72f
Thu 07/02 11:00pm  -  7s 13 16 mph 1011.2mb 70f 73f
10:00pm  -  7s 11 13 mph 1011.6mb 70f 72f
9:00pm  -  7s 11 13 mph 1012.2mb 70f 72f
8:00pm  -  7s 13 18 mph 1012.6mb 70f 72f
7:00pm  -  7s 11 16 mph 1013mb 70f 72f
6:00pm  -  7s 13 16 mph 1013.4mb 70f 71f
5:00pm  -  7s 9 11 mph 1013.8mb 70f 70f
4:00pm  -  7s 11 13 mph 1014.3mb 70f 69f
3:00pm  -  7s 9 11 mph 1014.3mb 70f 69f
2:00pm  -  7s 9 11 mph 1014.4mb 70f 68f
5:00am  -  7s 2
mph
1014.5mb 70f 69f
4:00am  -  7s 2 4 mph 1014.4mb 70f 70f
3:00am  -  7s 2
mph
1014.3mb 70f 72f
2:00am  -  7s 4 7 mph 1013.9mb 70f 73f
1:00am  -  7s 7
mph
1013.8mb 70f 73f
12:00am  -  7s 9 11 mph 1013.7mb 71f 74f
Wed 07/01 11:00pm  -  7s 9 11 mph 1013.7mb 71f 74f
10:00pm  -  7s 9 13 mph 1013.9mb 71f 74f
9:00pm  -  7s 9 13 mph 1013.9mb 72f 74f
8:00pm  -  7s 9 13 mph 1014.2mb 72f 73f
7:00pm  -  7s 7 9 mph 1014.5mb 72f 72f
6:00pm  -  7s 7 9 mph 1014.7mb 72f 72f
5:00pm  -  7s 4 7 mph 1014.9mb 71f 70f
4:00pm  -  7s 4
mph
1014.9mb 69f 69f